sensor_id;sensor_type;location;lat;lon;timestamp;P1;durP1;ratioP1;P2;durP2;ratioP2
72517;SDS011;60540;51.178;6.738;2022-07-04T00:00:24;1.98;;;1.10;;
72517;SDS011;60540;51.178;6.738;2022-07-04T00:02:49;2.20;;;0.98;;
72517;SDS011;60540;51.178;6.738;2022-07-04T00:05:16;2.22;;;1.00;;
72517;SDS011;60540;51.178;6.738;2022-07-04T00:07:43;2.05;;;1.10;;
72517;SDS011;60540;51.178;6.738;2022-07-04T00:10:11;3.15;;;1.10;;
72517;SDS011;60540;51.178;6.738;2022-07-04T00:12:38;5.50;;;1.50;;
72517;SDS011;60540;51.178;6.738;2022-07-04T00:15:04;3.00;;;1.10;;
72517;SDS011;60540;51.178;6.738;2022-07-04T00:17:30;2.53;;;1.13;;
72517;SDS011;60540;51.178;6.738;2022-07-04T00:19:56;3.28;;;1.00;;
72517;SDS011;60540;51.178;6.738;2022-07-04T00:22:21;2.67;;;1.08;;
72517;SDS011;60540;51.178;6.738;2022-07-04T00:24:47;1.90;;;1.17;;
72517;SDS011;60540;51.178;6.738;2022-07-04T00:27:12;3.08;;;1.10;;
72517;SDS011;60540;51.178;6.738;2022-07-04T00:29:37;2.80;;;1.02;;
72517;SDS011;60540;51.178;6.738;2022-07-04T00:32:03;2.83;;;1.13;;
72517;SDS011;60540;51.178;6.738;2022-07-04T00:34:28;5.35;;;1.20;;
72517;SDS011;60540;51.178;6.738;2022-07-04T00:36:54;1.88;;;1.02;;
72517;SDS011;60540;51.178;6.738;2022-07-04T00:39:19;2.50;;;1.10;;
72517;SDS011;60540;51.178;6.738;2022-07-04T00:41:45;4.68;;;1.10;;
72517;SDS011;60540;51.178;6.738;2022-07-04T00:44:11;3.47;;;1.10;;
72517;SDS011;60540;51.178;6.738;2022-07-04T00:46:37;4.57;;;1.45;;
72517;SDS011;60540;51.178;6.738;2022-07-04T00:49:03;3.50;;;1.20;;
72517;SDS011;60540;51.178;6.738;2022-07-04T00:51:29;2.65;;;1.00;;
72517;SDS011;60540;51.178;6.738;2022-07-04T00:53:55;2.58;;;0.95;;
72517;SDS011;60540;51.178;6.738;2022-07-04T00:56:22;4.07;;;1.25;;
72517;SDS011;60540;51.178;6.738;2022-07-04T00:58:48;2.50;;;1.25;;
72517;SDS011;60540;51.178;6.738;2022-07-04T01:01:13;3.47;;;1.30;;
72517;SDS011;60540;51.178;6.738;2022-07-04T01:03:39;4.00;;;1.05;;
72517;SDS011;60540;51.178;6.738;2022-07-04T01:06:04;2.75;;;1.00;;
72517;SDS011;60540;51.178;6.738;2022-07-04T01:08:34;3.17;;;1.27;;
72517;SDS011;60540;51.178;6.738;2022-07-04T01:11:08;2.67;;;1.30;;
72517;SDS011;60540;51.178;6.738;2022-07-04T01:13:34;3.28;;;1.30;;
72517;SDS011;60540;51.178;6.738;2022-07-04T01:15:59;3.45;;;1.20;;
72517;SDS011;60540;51.178;6.738;2022-07-04T01:18:26;3.08;;;1.10;;
72517;SDS011;60540;51.178;6.738;2022-07-04T01:20:51;4.78;;;1.42;;
72517;SDS011;60540;51.178;6.738;2022-07-04T01:23:16;2.58;;;1.17;;
72517;SDS011;60540;51.178;6.738;2022-07-04T01:25:42;3.67;;;1.50;;
72517;SDS011;60540;51.178;6.738;2022-07-04T01:28:08;3.47;;;1.65;;
72517;SDS011;60540;51.178;6.738;2022-07-04T01:30:34;5.72;;;1.50;;
72517;SDS011;60540;51.178;6.738;2022-07-04T01:35:26;2.58;;;1.20;;
72517;SDS011;60540;51.178;6.738;2022-07-04T01:37:51;3.97;;;1.52;;
72517;SDS011;60540;51.178;6.738;2022-07-04T01:40:17;4.63;;;1.60;;
72517;SDS011;60540;51.178;6.738;2022-07-04T01:42:42;2.92;;;1.40;;
72517;SDS011;60540;51.178;6.738;2022-07-04T01:45:08;3.95;;;1.77;;
72517;SDS011;60540;51.178;6.738;2022-07-04T01:47:34;3.42;;;1.30;;
72517;SDS011;60540;51.178;6.738;2022-07-04T01:50:00;3.47;;;1.40;;
72517;SDS011;60540;51.178;6.738;2022-07-04T01:52:26;3.92;;;1.40;;
72517;SDS011;60540;51.178;6.738;2022-07-04T01:54:51;3.17;;;1.30;;
72517;SDS011;60540;51.178;6.738;2022-07-04T01:57:17;4.20;;;1.48;;
72517;SDS011;60540;51.178;6.738;2022-07-04T01:59:42;5.05;;;1.55;;
72517;SDS011;60540;51.178;6.738;2022-07-04T02:02:26;2.78;;;1.48;;
72517;SDS011;60540;51.178;6.738;2022-07-04T02:04:51;4.63;;;1.70;;
72517;SDS011;60540;51.178;6.738;2022-07-04T02:07:17;3.90;;;1.50;;
72517;SDS011;60540;51.178;6.738;2022-07-04T02:09:42;3.92;;;1.25;;
72517;SDS011;60540;51.178;6.738;2022-07-04T02:12:08;5.13;;;1.50;;
72517;SDS011;60540;51.178;6.738;2022-07-04T02:14:52;4.03;;;1.40;;
72517;SDS011;60540;51.178;6.738;2022-07-04T02:17:17;4.28;;;1.75;;
72517;SDS011;60540;51.178;6.738;2022-07-04T02:19:43;2.83;;;1.17;;
72517;SDS011;60540;51.178;6.738;2022-07-04T02:22:08;3.08;;;1.40;;
72517;SDS011;60540;51.178;6.738;2022-07-04T02:24:34;2.63;;;1.45;;
72517;SDS011;60540;51.178;6.738;2022-07-04T02:26:59;3.35;;;1.55;;
72517;SDS011;60540;51.178;6.738;2022-07-04T02:29:24;2.80;;;1.30;;
72517;SDS011;60540;51.178;6.738;2022-07-04T02:31:50;3.17;;;1.13;;
72517;SDS011;60540;51.178;6.738;2022-07-04T02:34:15;3.92;;;1.40;;
72517;SDS011;60540;51.178;6.738;2022-07-04T02:36:40;3.92;;;1.40;;
72517;SDS011;60540;51.178;6.738;2022-07-04T02:39:06;4.93;;;1.50;;
72517;SDS011;60540;51.178;6.738;2022-07-04T02:41:32;2.58;;;1.40;;
72517;SDS011;60540;51.178;6.738;2022-07-04T02:43:58;2.90;;;1.42;;
72517;SDS011;60540;51.178;6.738;2022-07-04T02:46:24;2.92;;;1.45;;
72517;SDS011;60540;51.178;6.738;2022-07-04T02:48:49;3.17;;;1.40;;
72517;SDS011;60540;51.178;6.738;2022-07-04T02:51:14;4.18;;;1.50;;
72517;SDS011;60540;51.178;6.738;2022-07-04T02:53:40;3.45;;;1.40;;
72517;SDS011;60540;51.178;6.738;2022-07-04T02:56:05;3.55;;;1.45;;
72517;SDS011;60540;51.178;6.738;2022-07-04T02:58:31;2.88;;;1.20;;
72517;SDS011;60540;51.178;6.738;2022-07-04T03:00:57;4.03;;;1.75;;
72517;SDS011;60540;51.178;6.738;2022-07-04T03:03:23;3.25;;;1.58;;
72517;SDS011;60540;51.178;6.738;2022-07-04T03:05:48;3.10;;;1.48;;
72517;SDS011;60540;51.178;6.738;2022-07-04T03:08:14;4.78;;;1.70;;
72517;SDS011;60540;51.178;6.738;2022-07-04T03:10:39;4.82;;;1.40;;
72517;SDS011;60540;51.178;6.738;2022-07-04T03:13:04;3.00;;;1.42;;
72517;SDS011;60540;51.178;6.738;2022-07-04T03:15:30;5.00;;;1.45;;
72517;SDS011;60540;51.178;6.738;2022-07-04T03:17:56;2.58;;;1.52;;
72517;SDS011;60540;51.178;6.738;2022-07-04T03:20:21;3.45;;;1.52;;
72517;SDS011;60540;51.178;6.738;2022-07-04T03:22:46;5.07;;;1.55;;
72517;SDS011;60540;51.178;6.738;2022-07-04T03:25:12;3.95;;;1.45;;
72517;SDS011;60540;51.178;6.738;2022-07-04T03:27:37;2.70;;;1.42;;
72517;SDS011;60540;51.178;6.738;2022-07-04T03:30:02;4.40;;;1.40;;
72517;SDS011;60540;51.178;6.738;2022-07-04T03:32:28;2.75;;;1.40;;
72517;SDS011;60540;51.178;6.738;2022-07-04T03:34:53;3.75;;;1.60;;
72517;SDS011;60540;51.178;6.738;2022-07-04T03:37:19;2.47;;;1.55;;
72517;SDS011;60540;51.178;6.738;2022-07-04T03:39:44;3.50;;;1.63;;
72517;SDS011;60540;51.178;6.738;2022-07-04T03:42:09;3.28;;;1.58;;
72517;SDS011;60540;51.178;6.738;2022-07-04T03:44:35;3.22;;;1.50;;
72517;SDS011;60540;51.178;6.738;2022-07-04T03:47:00;3.38;;;1.67;;
72517;SDS011;60540;51.178;6.738;2022-07-04T03:49:26;3.20;;;1.55;;
72517;SDS011;60540;51.178;6.738;2022-07-04T03:51:51;3.97;;;1.60;;
72517;SDS011;60540;51.178;6.738;2022-07-04T03:54:17;3.92;;;1.98;;
72517;SDS011;60540;51.178;6.738;2022-07-04T03:56:42;3.40;;;1.77;;
72517;SDS011;60540;51.178;6.738;2022-07-04T03:59:07;5.88;;;2.50;;
72517;SDS011;60540;51.178;6.738;2022-07-04T04:01:33;3.28;;;1.75;;
72517;SDS011;60540;51.178;6.738;2022-07-04T04:03:58;6.18;;;1.85;;
72517;SDS011;60540;51.178;6.738;2022-07-04T04:06:42;3.67;;;1.80;;
72517;SDS011;60540;51.178;6.738;2022-07-04T04:09:07;3.20;;;1.60;;
72517;SDS011;60540;51.178;6.738;2022-07-04T04:11:37;5.57;;;1.83;;
72517;SDS011;60540;51.178;6.738;2022-07-04T04:14:02;4.40;;;1.70;;
72517;SDS011;60540;51.178;6.738;2022-07-04T04:16:28;4.20;;;1.90;;
72517;SDS011;60540;51.178;6.738;2022-07-04T04:18:53;6.13;;;1.98;;
72517;SDS011;60540;51.178;6.738;2022-07-04T04:21:18;2.67;;;1.40;;
72517;SDS011;60540;51.178;6.738;2022-07-04T04:23:44;4.25;;;1.88;;
72517;SDS011;60540;51.178;6.738;2022-07-04T04:26:09;4.25;;;1.90;;
72517;SDS011;60540;51.178;6.738;2022-07-04T04:28:34;4.47;;;1.90;;
72517;SDS011;60540;51.178;6.738;2022-07-04T04:31:00;4.38;;;2.00;;
72517;SDS011;60540;51.178;6.738;2022-07-04T04:33:25;5.40;;;2.03;;
72517;SDS011;60540;51.178;6.738;2022-07-04T04:35:51;8.35;;;2.42;;
72517;SDS011;60540;51.178;6.738;2022-07-04T04:38:16;4.25;;;1.85;;
72517;SDS011;60540;51.178;6.738;2022-07-04T04:40:41;3.38;;;1.63;;
72517;SDS011;60540;51.178;6.738;2022-07-04T04:43:07;3.25;;;1.67;;
72517;SDS011;60540;51.178;6.738;2022-07-04T04:45:32;8.43;;;2.28;;
72517;SDS011;60540;51.178;6.738;2022-07-04T04:47:57;4.50;;;1.73;;
72517;SDS011;60540;51.178;6.738;2022-07-04T04:50:23;3.80;;;2.00;;
72517;SDS011;60540;51.178;6.738;2022-07-04T04:52:48;4.68;;;2.08;;
72517;SDS011;60540;51.178;6.738;2022-07-04T04:55:13;5.03;;;1.83;;
72517;SDS011;60540;51.178;6.738;2022-07-04T04:57:39;5.97;;;2.45;;
72517;SDS011;60540;51.178;6.738;2022-07-04T05:00:04;5.28;;;1.75;;
72517;SDS011;60540;51.178;6.738;2022-07-04T05:02:30;4.82;;;1.90;;
72517;SDS011;60540;51.178;6.738;2022-07-04T05:04:56;5.43;;;2.15;;
72517;SDS011;60540;51.178;6.738;2022-07-04T05:07:21;4.07;;;2.00;;
72517;SDS011;60540;51.178;6.738;2022-07-04T05:09:46;4.82;;;2.45;;
72517;SDS011;60540;51.178;6.738;2022-07-04T05:12:12;4.45;;;1.88;;
72517;SDS011;60540;51.178;6.738;2022-07-04T05:14:38;6.13;;;2.20;;
72517;SDS011;60540;51.178;6.738;2022-07-04T05:17:03;5.88;;;2.20;;
72517;SDS011;60540;51.178;6.738;2022-07-04T05:19:29;4.50;;;2.60;;
72517;SDS011;60540;51.178;6.738;2022-07-04T05:21:54;6.40;;;2.38;;
72517;SDS011;60540;51.178;6.738;2022-07-04T05:24:20;6.15;;;2.30;;
72517;SDS011;60540;51.178;6.738;2022-07-04T05:26:45;6.03;;;1.98;;
72517;SDS011;60540;51.178;6.738;2022-07-04T05:29:10;5.82;;;1.90;;
72517;SDS011;60540;51.178;6.738;2022-07-04T05:31:36;5.65;;;2.25;;
72517;SDS011;60540;51.178;6.738;2022-07-04T05:34:01;4.00;;;2.20;;
72517;SDS011;60540;51.178;6.738;2022-07-04T05:36:27;5.97;;;2.42;;
72517;SDS011;60540;51.178;6.738;2022-07-04T05:38:52;6.55;;;2.10;;
72517;SDS011;60540;51.178;6.738;2022-07-04T05:41:18;6.95;;;2.10;;
72517;SDS011;60540;51.178;6.738;2022-07-04T05:43:43;5.40;;;2.15;;
72517;SDS011;60540;51.178;6.738;2022-07-04T05:46:09;5.30;;;2.03;;
72517;SDS011;60540;51.178;6.738;2022-07-04T05:48:34;6.20;;;2.28;;
72517;SDS011;60540;51.178;6.738;2022-07-04T05:51:00;4.65;;;2.08;;
72517;SDS011;60540;51.178;6.738;2022-07-04T05:53:27;4.15;;;2.00;;
72517;SDS011;60540;51.178;6.738;2022-07-04T05:55:52;3.95;;;2.20;;
72517;SDS011;60540;51.178;6.738;2022-07-04T05:58:17;5.30;;;2.15;;
72517;SDS011;60540;51.178;6.738;2022-07-04T06:00:43;4.80;;;2.20;;
72517;SDS011;60540;51.178;6.738;2022-07-04T06:03:08;2.95;;;1.77;;
72517;SDS011;60540;51.178;6.738;2022-07-04T06:05:34;4.63;;;2.17;;
72517;SDS011;60540;51.178;6.738;2022-07-04T06:07:59;3.97;;;2.15;;
72517;SDS011;60540;51.178;6.738;2022-07-04T06:10:25;4.05;;;1.85;;
72517;SDS011;60540;51.178;6.738;2022-07-04T06:12:50;5.57;;;1.70;;
72517;SDS011;60540;51.178;6.738;2022-07-04T06:17:42;4.53;;;1.73;;
72517;SDS011;60540;51.178;6.738;2022-07-04T06:20:08;4.75;;;2.08;;
72517;SDS011;60540;51.178;6.738;2022-07-04T06:25:06;3.13;;;1.50;;
72517;SDS011;60540;51.178;6.738;2022-07-04T06:27:34;5.25;;;1.85;;
72517;SDS011;60540;51.178;6.738;2022-07-04T06:30:00;5.03;;;1.85;;
72517;SDS011;60540;51.178;6.738;2022-07-04T06:32:25;6.57;;;2.08;;
72517;SDS011;60540;51.178;6.738;2022-07-04T06:34:51;5.20;;;1.90;;
72517;SDS011;60540;51.178;6.738;2022-07-04T06:37:34;3.55;;;1.73;;
72517;SDS011;60540;51.178;6.738;2022-07-04T06:40:00;4.57;;;1.85;;
72517;SDS011;60540;51.178;6.738;2022-07-04T06:42:25;2.92;;;1.70;;
72517;SDS011;60540;51.178;6.738;2022-07-04T06:44:50;3.35;;;1.70;;
72517;SDS011;60540;51.178;6.738;2022-07-04T06:47:16;6.03;;;2.00;;
72517;SDS011;60540;51.178;6.738;2022-07-04T06:49:41;4.78;;;1.80;;
72517;SDS011;60540;51.178;6.738;2022-07-04T06:52:06;3.22;;;1.30;;
72517;SDS011;60540;51.178;6.738;2022-07-04T06:54:32;4.60;;;1.58;;
72517;SDS011;60540;51.178;6.738;2022-07-04T06:56:57;4.72;;;1.45;;
72517;SDS011;60540;51.178;6.738;2022-07-04T06:59:22;4.45;;;1.40;;
72517;SDS011;60540;51.178;6.738;2022-07-04T07:01:48;3.00;;;1.55;;
72517;SDS011;60540;51.178;6.738;2022-07-04T07:04:13;2.45;;;1.42;;
72517;SDS011;60540;51.178;6.738;2022-07-04T07:06:38;6.28;;;1.67;;
72517;SDS011;60540;51.178;6.738;2022-07-04T07:09:04;3.20;;;1.23;;
72517;SDS011;60540;51.178;6.738;2022-07-04T07:11:29;5.43;;;1.30;;
72517;SDS011;60540;51.178;6.738;2022-07-04T07:13:54;2.53;;;1.10;;
72517;SDS011;60540;51.178;6.738;2022-07-04T07:16:20;3.00;;;1.02;;
72517;SDS011;60540;51.178;6.738;2022-07-04T07:18:45;3.70;;;1.50;;
72517;SDS011;60540;51.178;6.738;2022-07-04T07:21:11;3.17;;;1.67;;
72517;SDS011;60540;51.178;6.738;2022-07-04T07:23:40;4.60;;;1.90;;
72517;SDS011;60540;51.178;6.738;2022-07-04T07:26:06;5.45;;;1.25;;
72517;SDS011;60540;51.178;6.738;2022-07-04T07:28:32;2.30;;;1.20;;
72517;SDS011;60540;51.178;6.738;2022-07-04T07:30:58;3.88;;;1.20;;
72517;SDS011;60540;51.178;6.738;2022-07-04T07:33:23;2.80;;;1.02;;
72517;SDS011;60540;51.178;6.738;2022-07-04T07:35:48;2.72;;;1.27;;
72517;SDS011;60540;51.178;6.738;2022-07-04T07:38:14;4.85;;;1.20;;
72517;SDS011;60540;51.178;6.738;2022-07-04T07:40:39;2.85;;;0.73;;
72517;SDS011;60540;51.178;6.738;2022-07-04T07:43:05;1.48;;;0.80;;
72517;SDS011;60540;51.178;6.738;2022-07-04T07:45:30;3.22;;;1.50;;
72517;SDS011;60540;51.178;6.738;2022-07-04T07:47:56;4.13;;;1.20;;
72517;SDS011;60540;51.178;6.738;2022-07-04T07:50:21;1.88;;;0.90;;
72517;SDS011;60540;51.178;6.738;2022-07-04T07:52:46;3.63;;;1.10;;
72517;SDS011;60540;51.178;6.738;2022-07-04T07:55:12;4.75;;;1.33;;
72517;SDS011;60540;51.178;6.738;2022-07-04T07:57:37;3.00;;;0.90;;
72517;SDS011;60540;51.178;6.738;2022-07-04T08:00:03;3.22;;;1.02;;
72517;SDS011;60540;51.178;6.738;2022-07-04T08:02:29;3.97;;;1.10;;
72517;SDS011;60540;51.178;6.738;2022-07-04T08:05:13;3.15;;;1.00;;
72517;SDS011;60540;51.178;6.738;2022-07-04T08:07:39;2.45;;;0.70;;
72517;SDS011;60540;51.178;6.738;2022-07-04T08:10:04;3.17;;;1.50;;
72517;SDS011;60540;51.178;6.738;2022-07-04T08:12:30;4.03;;;1.25;;
72517;SDS011;60540;51.178;6.738;2022-07-04T08:14:56;2.58;;;1.00;;
72517;SDS011;60540;51.178;6.738;2022-07-04T08:17:21;3.28;;;0.90;;
72517;SDS011;60540;51.178;6.738;2022-07-04T08:19:46;3.17;;;1.20;;
72517;SDS011;60540;51.178;6.738;2022-07-04T08:22:12;2.75;;;0.80;;
72517;SDS011;60540;51.178;6.738;2022-07-04T08:24:38;2.00;;;0.80;;
72517;SDS011;60540;51.178;6.738;2022-07-04T08:27:03;2.33;;;0.77;;
72517;SDS011;60540;51.178;6.738;2022-07-04T08:29:29;2.90;;;0.77;;
72517;SDS011;60540;51.178;6.738;2022-07-04T08:31:57;1.48;;;0.80;;
72517;SDS011;60540;51.178;6.738;2022-07-04T08:34:22;2.70;;;0.93;;
72517;SDS011;60540;51.178;6.738;2022-07-04T08:36:47;3.75;;;1.00;;
72517;SDS011;60540;51.178;6.738;2022-07-04T08:39:13;1.77;;;0.80;;
72517;SDS011;60540;51.178;6.738;2022-07-04T08:41:39;2.03;;;0.73;;
72517;SDS011;60540;51.178;6.738;2022-07-04T08:44:06;1.73;;;0.85;;
72517;SDS011;60540;51.178;6.738;2022-07-04T08:46:36;1.55;;;0.95;;
72517;SDS011;60540;51.178;6.738;2022-07-04T08:49:03;4.28;;;1.33;;
72517;SDS011;60540;51.178;6.738;2022-07-04T08:51:57;3.70;;;0.80;;
72517;SDS011;60540;51.178;6.738;2022-07-04T08:54:25;3.47;;;1.10;;
72517;SDS011;60540;51.178;6.738;2022-07-04T08:57:10;2.40;;;0.93;;
72517;SDS011;60540;51.178;6.738;2022-07-04T08:59:54;2.60;;;1.10;;
72517;SDS011;60540;51.178;6.738;2022-07-04T09:02:21;3.05;;;1.08;;
72517;SDS011;60540;51.178;6.738;2022-07-04T09:04:47;4.25;;;1.30;;
72517;SDS011;60540;51.178;6.738;2022-07-04T09:07:14;1.98;;;0.88;;
72517;SDS011;60540;51.178;6.738;2022-07-04T09:09:39;2.65;;;1.00;;
72517;SDS011;60540;51.178;6.738;2022-07-04T09:12:05;3.58;;;1.20;;
72517;SDS011;60540;51.178;6.738;2022-07-04T09:14:32;3.60;;;1.05;;
72517;SDS011;60540;51.178;6.738;2022-07-04T09:16:58;3.13;;;1.17;;
72517;SDS011;60540;51.178;6.738;2022-07-04T09:19:23;2.67;;;0.90;;
72517;SDS011;60540;51.178;6.738;2022-07-04T09:21:49;1.33;;;0.90;;
72517;SDS011;60540;51.178;6.738;2022-07-04T09:24:14;2.85;;;0.80;;
72517;SDS011;60540;51.178;6.738;2022-07-04T09:26:40;1.77;;;0.90;;
72517;SDS011;60540;51.178;6.738;2022-07-04T09:29:10;2.95;;;1.02;;
72517;SDS011;60540;51.178;6.738;2022-07-04T09:31:36;8.55;;;1.40;;
72517;SDS011;60540;51.178;6.738;2022-07-04T09:34:03;3.55;;;1.02;;
72517;SDS011;60540;51.178;6.738;2022-07-04T09:36:38;3.03;;;1.10;;
72517;SDS011;60540;51.178;6.738;2022-07-04T09:39:19;4.55;;;0.82;;
72517;SDS011;60540;51.178;6.738;2022-07-04T09:41:53;5.32;;;1.10;;
72517;SDS011;60540;51.178;6.738;2022-07-04T09:44:20;4.18;;;1.08;;
72517;SDS011;60540;51.178;6.738;2022-07-04T09:46:47;2.17;;;0.90;;
72517;SDS011;60540;51.178;6.738;2022-07-04T09:49:12;2.20;;;0.98;;
72517;SDS011;60540;51.178;6.738;2022-07-04T09:51:41;3.47;;;1.30;;
72517;SDS011;60540;51.178;6.738;2022-07-04T09:54:21;1.98;;;0.93;;
72517;SDS011;60540;51.178;6.738;2022-07-04T09:56:55;2.60;;;0.70;;
72517;SDS011;60540;51.178;6.738;2022-07-04T09:59:23;3.28;;;1.00;;
72517;SDS011;60540;51.178;6.738;2022-07-04T10:04:14;2.63;;;1.10;;
72517;SDS011;60540;51.178;6.738;2022-07-04T10:06:43;1.75;;;0.82;;
72517;SDS011;60540;51.178;6.738;2022-07-04T10:09:10;5.20;;;1.00;;
72517;SDS011;60540;51.178;6.738;2022-07-04T10:11:38;5.03;;;1.20;;
72517;SDS011;60540;51.178;6.738;2022-07-04T10:14:05;2.55;;;0.95;;
72517;SDS011;60540;51.178;6.738;2022-07-04T10:16:31;5.20;;;1.10;;
72517;SDS011;60540;51.178;6.738;2022-07-04T10:18:56;1.85;;;0.82;;
72517;SDS011;60540;51.178;6.738;2022-07-04T10:21:22;3.45;;;1.20;;
72517;SDS011;60540;51.178;6.738;2022-07-04T10:23:49;3.97;;;1.00;;
72517;SDS011;60540;51.178;6.738;2022-07-04T10:26:17;2.83;;;0.88;;
72517;SDS011;60540;51.178;6.738;2022-07-04T10:28:43;5.05;;;1.10;;
72517;SDS011;60540;51.178;6.738;2022-07-04T10:31:09;2.00;;;1.00;;
72517;SDS011;60540;51.178;6.738;2022-07-04T10:33:34;3.40;;;1.20;;
72517;SDS011;60540;51.178;6.738;2022-07-04T10:38:28;3.75;;;0.90;;
72517;SDS011;60540;51.178;6.738;2022-07-04T10:40:55;2.90;;;1.10;;
72517;SDS011;60540;51.178;6.738;2022-07-04T10:45:51;2.58;;;1.13;;
72517;SDS011;60540;51.178;6.738;2022-07-04T10:51:01;2.75;;;0.90;;
72517;SDS011;60540;51.178;6.738;2022-07-04T10:53:28;6.28;;;1.20;;
72517;SDS011;60540;51.178;6.738;2022-07-04T10:55:54;3.42;;;1.00;;
72517;SDS011;60540;51.178;6.738;2022-07-04T10:58:41;3.28;;;1.17;;
72517;SDS011;60540;51.178;6.738;2022-07-04T11:01:14;2.85;;;1.10;;
72517;SDS011;60540;51.178;6.738;2022-07-04T11:03:47;6.35;;;1.10;;
72517;SDS011;60540;51.178;6.738;2022-07-04T11:11:57;2.10;;;0.90;;
72517;SDS011;60540;51.178;6.738;2022-07-04T11:14:40;2.78;;;1.00;;
72517;SDS011;60540;51.178;6.738;2022-07-04T11:17:14;3.22;;;0.98;;
72517;SDS011;60540;51.178;6.738;2022-07-04T11:19:41;2.60;;;0.88;;
72517;SDS011;60540;51.178;6.738;2022-07-04T11:24:34;3.00;;;0.90;;
72517;SDS011;60540;51.178;6.738;2022-07-04T11:26:59;4.43;;;0.85;;
72517;SDS011;60540;51.178;6.738;2022-07-04T11:31:51;2.30;;;0.70;;
72517;SDS011;60540;51.178;6.738;2022-07-04T11:36:43;3.30;;;0.95;;
72517;SDS011;60540;51.178;6.738;2022-07-04T11:39:11;3.13;;;1.00;;
72517;SDS011;60540;51.178;6.738;2022-07-04T11:41:54;4.03;;;1.00;;
72517;SDS011;60540;51.178;6.738;2022-07-04T11:44:39;5.43;;;1.10;;
72517;SDS011;60540;51.178;6.738;2022-07-04T11:55:03;2.72;;;0.95;;
72517;SDS011;60540;51.178;6.738;2022-07-04T11:57:29;3.95;;;1.52;;
72517;SDS011;60540;51.178;6.738;2022-07-04T12:00:08;3.33;;;1.00;;
72517;SDS011;60540;51.178;6.738;2022-07-04T12:02:34;3.92;;;0.93;;
72517;SDS011;60540;51.178;6.738;2022-07-04T12:05:00;2.88;;;1.00;;
72517;SDS011;60540;51.178;6.738;2022-07-04T12:07:28;2.58;;;0.90;;
72517;SDS011;60540;51.178;6.738;2022-07-04T12:09:57;4.15;;;1.20;;
72517;SDS011;60540;51.178;6.738;2022-07-04T12:15:41;1.83;;;1.02;;
72517;SDS011;60540;51.178;6.738;2022-07-04T12:18:18;3.63;;;1.20;;
72517;SDS011;60540;51.178;6.738;2022-07-04T12:20:53;4.32;;;1.20;;
72517;SDS011;60540;51.178;6.738;2022-07-04T12:23:19;2.35;;;0.95;;
72517;SDS011;60540;51.178;6.738;2022-07-04T12:25:46;4.07;;;1.00;;
72517;SDS011;60540;51.178;6.738;2022-07-04T12:28:13;2.10;;;0.80;;
72517;SDS011;60540;51.178;6.738;2022-07-04T12:30:50;3.17;;;0.95;;
72517;SDS011;60540;51.178;6.738;2022-07-04T12:33:20;4.05;;;1.10;;
72517;SDS011;60540;51.178;6.738;2022-07-04T12:35:47;3.28;;;1.10;;
72517;SDS011;60540;51.178;6.738;2022-07-04T12:40:54;3.35;;;0.93;;
72517;SDS011;60540;51.178;6.738;2022-07-04T12:43:21;3.90;;;1.00;;
72517;SDS011;60540;51.178;6.738;2022-07-04T12:45:48;2.90;;;1.00;;
72517;SDS011;60540;51.178;6.738;2022-07-04T12:48:15;3.22;;;1.10;;
72517;SDS011;60540;51.178;6.738;2022-07-04T12:50:42;2.08;;;0.88;;
72517;SDS011;60540;51.178;6.738;2022-07-04T12:53:07;4.53;;;1.10;;
72517;SDS011;60540;51.178;6.738;2022-07-04T12:55:32;4.32;;;1.00;;
72517;SDS011;60540;51.178;6.738;2022-07-04T13:00:23;3.42;;;1.10;;
72517;SDS011;60540;51.178;6.738;2022-07-04T13:02:49;2.67;;;1.00;;
72517;SDS011;60540;51.178;6.738;2022-07-04T13:05:15;2.95;;;0.80;;
72517;SDS011;60540;51.178;6.738;2022-07-04T13:07:41;2.53;;;1.10;;
72517;SDS011;60540;51.178;6.738;2022-07-04T13:12:32;2.50;;;0.90;;
72517;SDS011;60540;51.178;6.738;2022-07-04T13:14:57;1.65;;;0.80;;
72517;SDS011;60540;51.178;6.738;2022-07-04T13:17:24;2.83;;;0.90;;
72517;SDS011;60540;51.178;6.738;2022-07-04T13:19:50;2.58;;;0.98;;
72517;SDS011;60540;51.178;6.738;2022-07-04T13:22:20;3.72;;;1.23;;
72517;SDS011;60540;51.178;6.738;2022-07-04T13:24:47;4.18;;;1.20;;
72517;SDS011;60540;51.178;6.738;2022-07-04T13:27:12;3.97;;;1.10;;
72517;SDS011;60540;51.178;6.738;2022-07-04T13:29:38;2.25;;;0.82;;
72517;SDS011;60540;51.178;6.738;2022-07-04T13:32:04;2.25;;;1.00;;
72517;SDS011;60540;51.178;6.738;2022-07-04T13:34:30;4.78;;;1.05;;
72517;SDS011;60540;51.178;6.738;2022-07-04T13:36:55;2.28;;;0.90;;
72517;SDS011;60540;51.178;6.738;2022-07-04T13:39:21;2.58;;;0.80;;
72517;SDS011;60540;51.178;6.738;2022-07-04T13:41:47;3.22;;;1.10;;
72517;SDS011;60540;51.178;6.738;2022-07-04T13:44:13;2.03;;;0.80;;
72517;SDS011;60540;51.178;6.738;2022-07-04T13:46:40;2.95;;;1.10;;
72517;SDS011;60540;51.178;6.738;2022-07-04T13:49:07;2.67;;;0.90;;
72517;SDS011;60540;51.178;6.738;2022-07-04T13:51:32;2.67;;;0.90;;
72517;SDS011;60540;51.178;6.738;2022-07-04T13:56:23;2.47;;;0.90;;
72517;SDS011;60540;51.178;6.738;2022-07-04T14:01:14;3.35;;;0.93;;
72517;SDS011;60540;51.178;6.738;2022-07-04T14:03:41;1.08;;;0.73;;
72517;SDS011;60540;51.178;6.738;2022-07-04T14:06:07;2.50;;;1.00;;
72517;SDS011;60540;51.178;6.738;2022-07-04T14:10:58;2.60;;;1.13;;
72517;SDS011;60540;51.178;6.738;2022-07-04T14:15:48;2.00;;;0.97;;
72517;SDS011;60540;51.178;6.738;2022-07-04T14:20:39;3.63;;;1.00;;
72517;SDS011;60540;51.178;6.738;2022-07-04T14:23:06;2.50;;;0.90;;
72517;SDS011;60540;51.178;6.738;2022-07-04T14:27:56;2.25;;;0.90;;
72517;SDS011;60540;51.178;6.738;2022-07-04T14:30:22;3.13;;;1.10;;
72517;SDS011;60540;51.178;6.738;2022-07-04T14:35:12;2.30;;;0.80;;
72517;SDS011;60540;51.178;6.738;2022-07-04T14:37:38;2.58;;;0.93;;
72517;SDS011;60540;51.178;6.738;2022-07-04T14:40:03;1.83;;;0.85;;
72517;SDS011;60540;51.178;6.738;2022-07-04T14:42:29;3.35;;;1.10;;
72517;SDS011;60540;51.178;6.738;2022-07-04T14:47:20;2.03;;;0.70;;
72517;SDS011;60540;51.178;6.738;2022-07-04T14:52:10;2.83;;;0.97;;
72517;SDS011;60540;51.178;6.738;2022-07-04T14:54:36;2.78;;;0.93;;
72517;SDS011;60540;51.178;6.738;2022-07-04T14:57:01;4.50;;;1.02;;
72517;SDS011;60540;51.178;6.738;2022-07-04T15:01:52;3.83;;;0.97;;
72517;SDS011;60540;51.178;6.738;2022-07-04T15:04:18;2.70;;;0.90;;
72517;SDS011;60540;51.178;6.738;2022-07-04T15:09:09;3.65;;;0.93;;
72517;SDS011;60540;51.178;6.738;2022-07-04T15:11:35;2.70;;;0.98;;
72517;SDS011;60540;51.178;6.738;2022-07-04T15:14:00;2.67;;;0.93;;
72517;SDS011;60540;51.178;6.738;2022-07-04T15:16:25;2.50;;;1.00;;
72517;SDS011;60540;51.178;6.738;2022-07-04T15:18:51;2.58;;;0.90;;
72517;SDS011;60540;51.178;6.738;2022-07-04T15:24:01;2.80;;;1.00;;
72517;SDS011;60540;51.178;6.738;2022-07-04T15:26:35;1.85;;;1.00;;
72517;SDS011;60540;51.178;6.738;2022-07-04T15:31:27;3.10;;;1.00;;
72517;SDS011;60540;51.178;6.738;2022-07-04T15:33:52;1.80;;;0.70;;
72517;SDS011;60540;51.178;6.738;2022-07-04T15:38:42;1.23;;;0.87;;
72517;SDS011;60540;51.178;6.738;2022-07-04T15:43:35;5.50;;;0.93;;
72517;SDS011;60540;51.178;6.738;2022-07-04T15:48:26;4.20;;;1.07;;
72517;SDS011;60540;51.178;6.738;2022-07-04T15:53:17;3.53;;;1.00;;
72517;SDS011;60540;51.178;6.738;2022-07-04T15:55:43;1.63;;;0.82;;
72517;SDS011;60540;51.178;6.738;2022-07-04T15:58:08;1.52;;;0.75;;
72517;SDS011;60540;51.178;6.738;2022-07-04T16:00:34;2.40;;;0.98;;
72517;SDS011;60540;51.178;6.738;2022-07-04T16:05:24;2.05;;;0.80;;
72517;SDS011;60540;51.178;6.738;2022-07-04T16:07:50;2.47;;;1.00;;
72517;SDS011;60540;51.178;6.738;2022-07-04T16:12:41;4.10;;;1.10;;
72517;SDS011;60540;51.178;6.738;2022-07-04T16:17:32;3.28;;;0.90;;
72517;SDS011;60540;51.178;6.738;2022-07-04T16:22:23;2.97;;;0.83;;
72517;SDS011;60540;51.178;6.738;2022-07-04T16:27:13;2.00;;;0.93;;